sensor_id;sensor_type;location;lat;lon;timestamp;P1;durP1;ratioP1;P2;durP2;ratioP2
20173;SDS011;10246;50.620;7.232;2023-02-15T00:01:55;30.50;;;17.57;;
20173;SDS011;10246;50.620;7.232;2023-02-15T00:04:24;33.43;;;17.37;;
20173;SDS011;10246;50.620;7.232;2023-02-15T00:07:11;34.83;;;18.00;;
20173;SDS011;10246;50.620;7.232;2023-02-15T00:09:38;38.23;;;18.87;;
20173;SDS011;10246;50.620;7.232;2023-02-15T00:12:05;39.13;;;18.57;;
20173;SDS011;10246;50.620;7.232;2023-02-15T00:14:33;34.67;;;17.97;;
20173;SDS011;10246;50.620;7.232;2023-02-15T00:17:00;34.93;;;17.77;;
20173;SDS011;10246;50.620;7.232;2023-02-15T00:19:27;31.10;;;16.87;;
20173;SDS011;10246;50.620;7.232;2023-02-15T00:21:54;40.10;;;18.47;;
20173;SDS011;10246;50.620;7.232;2023-02-15T00:24:20;39.80;;;19.27;;
20173;SDS011;10246;50.620;7.232;2023-02-15T00:26:47;34.20;;;17.90;;
20173;SDS011;10246;50.620;7.232;2023-02-15T00:29:15;34.40;;;17.57;;
20173;SDS011;10246;50.620;7.232;2023-02-15T00:31:44;40.17;;;18.47;;
20173;SDS011;10246;50.620;7.232;2023-02-15T00:34:12;34.43;;;16.70;;
20173;SDS011;10246;50.620;7.232;2023-02-15T00:36:40;35.87;;;18.47;;
20173;SDS011;10246;50.620;7.232;2023-02-15T00:39:07;35.00;;;18.60;;
20173;SDS011;10246;50.620;7.232;2023-02-15T00:41:34;34.70;;;18.87;;
20173;SDS011;10246;50.620;7.232;2023-02-15T00:44:01;34.47;;;17.47;;
20173;SDS011;10246;50.620;7.232;2023-02-15T00:46:28;28.80;;;16.53;;
20173;SDS011;10246;50.620;7.232;2023-02-15T00:48:56;33.47;;;17.63;;
20173;SDS011;10246;50.620;7.232;2023-02-15T00:51:23;36.00;;;18.90;;
20173;SDS011;10246;50.620;7.232;2023-02-15T00:53:50;40.13;;;20.83;;
20173;SDS011;10246;50.620;7.232;2023-02-15T00:56:17;40.53;;;20.23;;
20173;SDS011;10246;50.620;7.232;2023-02-15T00:58:44;35.10;;;18.93;;
20173;SDS011;10246;50.620;7.232;2023-02-15T01:01:11;35.03;;;18.53;;
20173;SDS011;10246;50.620;7.232;2023-02-15T01:03:39;38.90;;;19.83;;
20173;SDS011;10246;50.620;7.232;2023-02-15T01:06:09;36.40;;;18.90;;
20173;SDS011;10246;50.620;7.232;2023-02-15T01:08:36;39.00;;;19.10;;
20173;SDS011;10246;50.620;7.232;2023-02-15T01:11:04;39.77;;;19.60;;
20173;SDS011;10246;50.620;7.232;2023-02-15T01:13:32;37.90;;;18.37;;
20173;SDS011;10246;50.620;7.232;2023-02-15T01:15:58;38.53;;;18.83;;
20173;SDS011;10246;50.620;7.232;2023-02-15T01:18:25;37.90;;;18.30;;
20173;SDS011;10246;50.620;7.232;2023-02-15T01:20:53;34.50;;;18.00;;
20173;SDS011;10246;50.620;7.232;2023-02-15T01:23:21;37.60;;;18.70;;
20173;SDS011;10246;50.620;7.232;2023-02-15T01:25:48;38.77;;;19.33;;
20173;SDS011;10246;50.620;7.232;2023-02-15T01:28:15;40.33;;;20.23;;
20173;SDS011;10246;50.620;7.232;2023-02-15T01:30:41;42.03;;;21.17;;
20173;SDS011;10246;50.620;7.232;2023-02-15T01:33:09;37.47;;;18.77;;
20173;SDS011;10246;50.620;7.232;2023-02-15T01:35:42;41.90;;;21.30;;
20173;SDS011;10246;50.620;7.232;2023-02-15T01:38:10;39.20;;;20.37;;
20173;SDS011;10246;50.620;7.232;2023-02-15T01:40:38;42.13;;;20.00;;
20173;SDS011;10246;50.620;7.232;2023-02-15T01:43:08;38.03;;;20.27;;
20173;SDS011;10246;50.620;7.232;2023-02-15T01:45:37;42.33;;;20.70;;
20173;SDS011;10246;50.620;7.232;2023-02-15T01:48:17;45.03;;;20.00;;
20173;SDS011;10246;50.620;7.232;2023-02-15T01:50:47;43.07;;;21.60;;
20173;SDS011;10246;50.620;7.232;2023-02-15T01:53:19;39.37;;;20.13;;
20173;SDS011;10246;50.620;7.232;2023-02-15T01:55:52;38.97;;;19.60;;
20173;SDS011;10246;50.620;7.232;2023-02-15T01:58:22;38.20;;;19.80;;
20173;SDS011;10246;50.620;7.232;2023-02-15T02:00:51;42.07;;;21.47;;
20173;SDS011;10246;50.620;7.232;2023-02-15T02:03:18;43.03;;;20.73;;
20173;SDS011;10246;50.620;7.232;2023-02-15T02:05:56;40.47;;;20.47;;
20173;SDS011;10246;50.620;7.232;2023-02-15T02:08:23;45.93;;;20.70;;
20173;SDS011;10246;50.620;7.232;2023-02-15T02:10:51;39.80;;;19.43;;
20173;SDS011;10246;50.620;7.232;2023-02-15T02:13:18;40.47;;;20.20;;
20173;SDS011;10246;50.620;7.232;2023-02-15T02:15:48;43.63;;;19.87;;
20173;SDS011;10246;50.620;7.232;2023-02-15T02:18:35;38.30;;;19.00;;
20173;SDS011;10246;50.620;7.232;2023-02-15T02:21:27;43.67;;;20.20;;
20173;SDS011;10246;50.620;7.232;2023-02-15T02:24:30;39.47;;;19.43;;
20173;SDS011;10246;50.620;7.232;2023-02-15T02:27:17;42.30;;;20.80;;
20173;SDS011;10246;50.620;7.232;2023-02-15T02:32:53;38.70;;;19.23;;
20173;SDS011;10246;50.620;7.232;2023-02-15T02:35:38;40.67;;;19.80;;
20173;SDS011;10246;50.620;7.232;2023-02-15T02:38:17;38.90;;;19.63;;
20173;SDS011;10246;50.620;7.232;2023-02-15T02:40:52;37.83;;;18.57;;
20173;SDS011;10246;50.620;7.232;2023-02-15T02:43:28;43.13;;;19.67;;
20173;SDS011;10246;50.620;7.232;2023-02-15T02:46:02;39.00;;;20.10;;
20173;SDS011;10246;50.620;7.232;2023-02-15T02:48:36;37.70;;;18.23;;
20173;SDS011;10246;50.620;7.232;2023-02-15T02:51:04;34.77;;;18.23;;
20173;SDS011;10246;50.620;7.232;2023-02-15T02:53:31;36.83;;;18.57;;
20173;SDS011;10246;50.620;7.232;2023-02-15T02:56:01;38.90;;;20.23;;
20173;SDS011;10246;50.620;7.232;2023-02-15T02:58:34;35.30;;;18.60;;
20173;SDS011;10246;50.620;7.232;2023-02-15T03:01:08;34.97;;;18.17;;
20173;SDS011;10246;50.620;7.232;2023-02-15T03:03:40;36.00;;;17.50;;
20173;SDS011;10246;50.620;7.232;2023-02-15T03:06:09;36.93;;;18.93;;
20173;SDS011;10246;50.620;7.232;2023-02-15T03:08:40;34.93;;;17.87;;
20173;SDS011;10246;50.620;7.232;2023-02-15T03:11:11;33.03;;;17.80;;
20173;SDS011;10246;50.620;7.232;2023-02-15T03:13:38;38.90;;;19.07;;
20173;SDS011;10246;50.620;7.232;2023-02-15T03:16:06;40.93;;;19.30;;
20173;SDS011;10246;50.620;7.232;2023-02-15T03:18:55;39.03;;;18.17;;
20173;SDS011;10246;50.620;7.232;2023-02-15T03:21:27;33.37;;;15.87;;
20173;SDS011;10246;50.620;7.232;2023-02-15T03:24:00;36.40;;;18.03;;
20173;SDS011;10246;50.620;7.232;2023-02-15T03:26:32;34.70;;;16.67;;
20173;SDS011;10246;50.620;7.232;2023-02-15T03:29:02;30.80;;;16.27;;
20173;SDS011;10246;50.620;7.232;2023-02-15T03:31:31;33.20;;;16.90;;
20173;SDS011;10246;50.620;7.232;2023-02-15T03:34:04;31.00;;;15.80;;
20173;SDS011;10246;50.620;7.232;2023-02-15T03:36:36;36.77;;;17.37;;
20173;SDS011;10246;50.620;7.232;2023-02-15T03:39:11;30.73;;;16.13;;
20173;SDS011;10246;50.620;7.232;2023-02-15T03:41:45;30.20;;;15.70;;
20173;SDS011;10246;50.620;7.232;2023-02-15T03:44:16;29.40;;;15.57;;
20173;SDS011;10246;50.620;7.232;2023-02-15T03:46:50;32.60;;;17.07;;
20173;SDS011;10246;50.620;7.232;2023-02-15T03:49:24;31.37;;;16.83;;
20173;SDS011;10246;50.620;7.232;2023-02-15T03:51:57;31.20;;;15.93;;
20173;SDS011;10246;50.620;7.232;2023-02-15T03:54:26;28.77;;;14.97;;
20173;SDS011;10246;50.620;7.232;2023-02-15T03:57:12;30.03;;;15.20;;
20173;SDS011;10246;50.620;7.232;2023-02-15T03:59:59;31.67;;;16.47;;
20173;SDS011;10246;50.620;7.232;2023-02-15T04:02:47;31.67;;;15.43;;
20173;SDS011;10246;50.620;7.232;2023-02-15T04:05:42;27.30;;;14.33;;
20173;SDS011;10246;50.620;7.232;2023-02-15T04:08:10;30.67;;;16.07;;
20173;SDS011;10246;50.620;7.232;2023-02-15T04:10:38;31.90;;;15.67;;
20173;SDS011;10246;50.620;7.232;2023-02-15T04:13:20;27.63;;;13.73;;
20173;SDS011;10246;50.620;7.232;2023-02-15T04:15:48;31.17;;;15.20;;
20173;SDS011;10246;50.620;7.232;2023-02-15T04:18:30;29.30;;;15.30;;
20173;SDS011;10246;50.620;7.232;2023-02-15T04:21:17;29.77;;;15.37;;
20173;SDS011;10246;50.620;7.232;2023-02-15T04:24:02;27.40;;;14.40;;
20173;SDS011;10246;50.620;7.232;2023-02-15T04:26:47;30.73;;;15.33;;
20173;SDS011;10246;50.620;7.232;2023-02-15T04:29:14;32.50;;;15.77;;
20173;SDS011;10246;50.620;7.232;2023-02-15T04:31:40;30.03;;;14.80;;
20173;SDS011;10246;50.620;7.232;2023-02-15T04:34:08;31.27;;;16.17;;
20173;SDS011;10246;50.620;7.232;2023-02-15T04:36:37;29.03;;;15.37;;
20173;SDS011;10246;50.620;7.232;2023-02-15T04:39:04;28.07;;;15.47;;
20173;SDS011;10246;50.620;7.232;2023-02-15T04:41:31;30.40;;;15.13;;
20173;SDS011;10246;50.620;7.232;2023-02-15T04:43:59;29.67;;;15.47;;
20173;SDS011;10246;50.620;7.232;2023-02-15T04:46:26;29.83;;;15.40;;
20173;SDS011;10246;50.620;7.232;2023-02-15T04:48:54;28.40;;;15.23;;
20173;SDS011;10246;50.620;7.232;2023-02-15T04:51:21;31.30;;;15.17;;
20173;SDS011;10246;50.620;7.232;2023-02-15T04:53:49;30.40;;;16.40;;
20173;SDS011;10246;50.620;7.232;2023-02-15T04:56:17;25.33;;;13.83;;
20173;SDS011;10246;50.620;7.232;2023-02-15T04:58:44;29.23;;;14.83;;
20173;SDS011;10246;50.620;7.232;2023-02-15T05:01:11;27.87;;;14.77;;
20173;SDS011;10246;50.620;7.232;2023-02-15T05:03:37;25.60;;;13.73;;
20173;SDS011;10246;50.620;7.232;2023-02-15T05:06:04;26.87;;;14.37;;
20173;SDS011;10246;50.620;7.232;2023-02-15T05:08:31;26.00;;;14.47;;
20173;SDS011;10246;50.620;7.232;2023-02-15T05:10:59;27.67;;;14.63;;
20173;SDS011;10246;50.620;7.232;2023-02-15T05:13:26;26.90;;;14.70;;
20173;SDS011;10246;50.620;7.232;2023-02-15T05:15:53;30.20;;;16.37;;
20173;SDS011;10246;50.620;7.232;2023-02-15T05:18:20;27.23;;;14.37;;
20173;SDS011;10246;50.620;7.232;2023-02-15T05:20:48;26.33;;;14.00;;
20173;SDS011;10246;50.620;7.232;2023-02-15T05:23:15;27.70;;;14.87;;
20173;SDS011;10246;50.620;7.232;2023-02-15T05:25:45;27.47;;;15.03;;
20173;SDS011;10246;50.620;7.232;2023-02-15T05:28:31;23.17;;;12.70;;
20173;SDS011;10246;50.620;7.232;2023-02-15T05:31:00;25.60;;;14.37;;
20173;SDS011;10246;50.620;7.232;2023-02-15T05:33:33;25.20;;;13.60;;
20173;SDS011;10246;50.620;7.232;2023-02-15T05:36:00;27.10;;;14.30;;
20173;SDS011;10246;50.620;7.232;2023-02-15T05:38:27;25.37;;;13.77;;
20173;SDS011;10246;50.620;7.232;2023-02-15T05:40:54;29.03;;;14.30;;
20173;SDS011;10246;50.620;7.232;2023-02-15T05:43:21;25.73;;;13.60;;
20173;SDS011;10246;50.620;7.232;2023-02-15T05:45:50;25.73;;;13.87;;
20173;SDS011;10246;50.620;7.232;2023-02-15T05:48:19;30.57;;;13.50;;
20173;SDS011;10246;50.620;7.232;2023-02-15T05:50:56;24.03;;;13.33;;
20173;SDS011;10246;50.620;7.232;2023-02-15T05:53:23;25.37;;;13.67;;
20173;SDS011;10246;50.620;7.232;2023-02-15T05:55:50;26.83;;;13.97;;
20173;SDS011;10246;50.620;7.232;2023-02-15T05:58:17;26.00;;;13.33;;
20173;SDS011;10246;50.620;7.232;2023-02-15T06:00:44;24.07;;;13.83;;
20173;SDS011;10246;50.620;7.232;2023-02-15T06:03:12;25.27;;;13.57;;
20173;SDS011;10246;50.620;7.232;2023-02-15T06:05:38;21.97;;;12.43;;
20173;SDS011;10246;50.620;7.232;2023-02-15T06:08:10;19.83;;;11.63;;
20173;SDS011;10246;50.620;7.232;2023-02-15T06:10:37;23.23;;;12.97;;
20173;SDS011;10246;50.620;7.232;2023-02-15T06:13:06;23.87;;;12.67;;
20173;SDS011;10246;50.620;7.232;2023-02-15T06:15:33;22.80;;;13.23;;
20173;SDS011;10246;50.620;7.232;2023-02-15T06:18:00;24.50;;;13.67;;
20173;SDS011;10246;50.620;7.232;2023-02-15T06:20:28;22.07;;;12.43;;
20173;SDS011;10246;50.620;7.232;2023-02-15T06:22:55;24.87;;;12.80;;
20173;SDS011;10246;50.620;7.232;2023-02-15T06:25:22;20.93;;;11.67;;
20173;SDS011;10246;50.620;7.232;2023-02-15T06:27:52;25.00;;;12.80;;
20173;SDS011;10246;50.620;7.232;2023-02-15T06:30:35;23.70;;;13.00;;
20173;SDS011;10246;50.620;7.232;2023-02-15T06:33:16;22.37;;;12.13;;
20173;SDS011;10246;50.620;7.232;2023-02-15T06:35:44;25.63;;;13.30;;
20173;SDS011;10246;50.620;7.232;2023-02-15T06:38:11;24.13;;;12.93;;
20173;SDS011;10246;50.620;7.232;2023-02-15T06:40:38;25.90;;;13.33;;
20173;SDS011;10246;50.620;7.232;2023-02-15T06:43:05;22.87;;;12.40;;
20173;SDS011;10246;50.620;7.232;2023-02-15T06:45:32;26.20;;;13.07;;
20173;SDS011;10246;50.620;7.232;2023-02-15T06:47:58;25.73;;;12.57;;
20173;SDS011;10246;50.620;7.232;2023-02-15T06:50:25;23.57;;;12.97;;
20173;SDS011;10246;50.620;7.232;2023-02-15T06:52:56;22.43;;;12.40;;
20173;SDS011;10246;50.620;7.232;2023-02-15T06:55:23;20.10;;;11.33;;
20173;SDS011;10246;50.620;7.232;2023-02-15T06:57:50;22.73;;;12.37;;
20173;SDS011;10246;50.620;7.232;2023-02-15T07:00:17;23.27;;;12.80;;
20173;SDS011;10246;50.620;7.232;2023-02-15T07:02:44;24.40;;;12.80;;
20173;SDS011;10246;50.620;7.232;2023-02-15T07:05:11;24.17;;;13.07;;
20173;SDS011;10246;50.620;7.232;2023-02-15T07:07:38;22.87;;;12.60;;
20173;SDS011;10246;50.620;7.232;2023-02-15T07:10:07;23.00;;;12.40;;
20173;SDS011;10246;50.620;7.232;2023-02-15T07:12:34;23.67;;;12.77;;
20173;SDS011;10246;50.620;7.232;2023-02-15T07:15:11;26.10;;;13.57;;
20173;SDS011;10246;50.620;7.232;2023-02-15T07:17:40;24.10;;;13.00;;
20173;SDS011;10246;50.620;7.232;2023-02-15T07:20:08;20.43;;;11.87;;
20173;SDS011;10246;50.620;7.232;2023-02-15T07:22:36;24.67;;;12.80;;
20173;SDS011;10246;50.620;7.232;2023-02-15T07:25:03;22.87;;;11.97;;
20173;SDS011;10246;50.620;7.232;2023-02-15T07:27:33;23.10;;;12.77;;
20173;SDS011;10246;50.620;7.232;2023-02-15T07:30:00;22.03;;;12.47;;
20173;SDS011;10246;50.620;7.232;2023-02-15T07:32:28;25.30;;;12.13;;
20173;SDS011;10246;50.620;7.232;2023-02-15T07:34:55;24.07;;;12.33;;
20173;SDS011;10246;50.620;7.232;2023-02-15T07:37:22;22.07;;;12.40;;
20173;SDS011;10246;50.620;7.232;2023-02-15T07:39:49;22.33;;;12.43;;
20173;SDS011;10246;50.620;7.232;2023-02-15T07:42:16;24.90;;;12.93;;
20173;SDS011;10246;50.620;7.232;2023-02-15T07:44:46;21.17;;;11.33;;
20173;SDS011;10246;50.620;7.232;2023-02-15T07:47:12;24.10;;;13.30;;
20173;SDS011;10246;50.620;7.232;2023-02-15T07:49:39;24.77;;;13.17;;
20173;SDS011;10246;50.620;7.232;2023-02-15T07:52:06;21.63;;;11.97;;
20173;SDS011;10246;50.620;7.232;2023-02-15T07:54:33;24.03;;;12.60;;
20173;SDS011;10246;50.620;7.232;2023-02-15T07:57:00;22.57;;;12.33;;
20173;SDS011;10246;50.620;7.232;2023-02-15T07:59:27;23.20;;;12.50;;
20173;SDS011;10246;50.620;7.232;2023-02-15T08:01:55;18.50;;;11.03;;
20173;SDS011;10246;50.620;7.232;2023-02-15T08:04:22;20.57;;;12.13;;
20173;SDS011;10246;50.620;7.232;2023-02-15T08:06:51;22.83;;;12.57;;
20173;SDS011;10246;50.620;7.232;2023-02-15T08:09:18;23.93;;;12.90;;
20173;SDS011;10246;50.620;7.232;2023-02-15T08:11:46;23.17;;;12.00;;
20173;SDS011;10246;50.620;7.232;2023-02-15T08:14:14;21.93;;;12.43;;
20173;SDS011;10246;50.620;7.232;2023-02-15T08:16:43;22.77;;;12.93;;
20173;SDS011;10246;50.620;7.232;2023-02-15T08:19:12;23.70;;;13.03;;
20173;SDS011;10246;50.620;7.232;2023-02-15T08:21:41;27.33;;;12.63;;
20173;SDS011;10246;50.620;7.232;2023-02-15T08:24:10;23.63;;;13.00;;
20173;SDS011;10246;50.620;7.232;2023-02-15T08:26:38;23.67;;;13.00;;
20173;SDS011;10246;50.620;7.232;2023-02-15T08:29:05;22.77;;;12.40;;
20173;SDS011;10246;50.620;7.232;2023-02-15T08:31:33;21.97;;;11.97;;
20173;SDS011;10246;50.620;7.232;2023-02-15T08:34:02;24.00;;;12.27;;
20173;SDS011;10246;50.620;7.232;2023-02-15T08:36:31;23.90;;;13.00;;
20173;SDS011;10246;50.620;7.232;2023-02-15T08:38:59;23.80;;;12.90;;
20173;SDS011;10246;50.620;7.232;2023-02-15T08:41:27;23.03;;;12.60;;
20173;SDS011;10246;50.620;7.232;2023-02-15T08:43:56;25.30;;;13.40;;
20173;SDS011;10246;50.620;7.232;2023-02-15T08:46:24;23.60;;;12.27;;
20173;SDS011;10246;50.620;7.232;2023-02-15T08:48:52;21.20;;;13.20;;
20173;SDS011;10246;50.620;7.232;2023-02-15T08:51:25;21.27;;;13.03;;
20173;SDS011;10246;50.620;7.232;2023-02-15T08:56:52;25.20;;;13.63;;
20173;SDS011;10246;50.620;7.232;2023-02-15T08:59:19;23.07;;;12.37;;
20173;SDS011;10246;50.620;7.232;2023-02-15T09:01:54;25.20;;;13.40;;
20173;SDS011;10246;50.620;7.232;2023-02-15T09:04:32;24.17;;;13.07;;
20173;SDS011;10246;50.620;7.232;2023-02-15T09:07:02;21.43;;;11.53;;
20173;SDS011;10246;50.620;7.232;2023-02-15T09:09:35;23.97;;;12.70;;
20173;SDS011;10246;50.620;7.232;2023-02-15T09:12:03;23.50;;;13.00;;
20173;SDS011;10246;50.620;7.232;2023-02-15T09:14:41;20.67;;;11.83;;
20173;SDS011;10246;50.620;7.232;2023-02-15T09:17:20;26.13;;;14.20;;
20173;SDS011;10246;50.620;7.232;2023-02-15T09:19:57;27.37;;;14.23;;
20173;SDS011;10246;50.620;7.232;2023-02-15T09:22:34;21.67;;;12.50;;
20173;SDS011;10246;50.620;7.232;2023-02-15T09:25:37;23.37;;;12.23;;
20173;SDS011;10246;50.620;7.232;2023-02-15T09:28:14;27.47;;;13.23;;
20173;SDS011;10246;50.620;7.232;2023-02-15T09:31:07;22.07;;;12.17;;
20173;SDS011;10246;50.620;7.232;2023-02-15T09:34:06;21.37;;;12.27;;
20173;SDS011;10246;50.620;7.232;2023-02-15T09:36:51;20.70;;;12.13;;
20173;SDS011;10246;50.620;7.232;2023-02-15T09:39:57;18.97;;;11.50;;
20173;SDS011;10246;50.620;7.232;2023-02-15T09:50:10;19.50;;;11.67;;
20173;SDS011;10246;50.620;7.232;2023-02-15T09:52:47;21.23;;;11.67;;
20173;SDS011;10246;50.620;7.232;2023-02-15T09:55:36;19.57;;;11.87;;
20173;SDS011;10246;50.620;7.232;2023-02-15T09:58:11;20.20;;;12.13;;
20173;SDS011;10246;50.620;7.232;2023-02-15T10:00:48;21.80;;;12.37;;
20173;SDS011;10246;50.620;7.232;2023-02-15T10:03:25;19.77;;;12.17;;
20173;SDS011;10246;50.620;7.232;2023-02-15T10:06:14;19.87;;;12.27;;
20173;SDS011;10246;50.620;7.232;2023-02-15T10:08:52;20.77;;;12.67;;
20173;SDS011;10246;50.620;7.232;2023-02-15T10:11:37;20.77;;;12.43;;
20173;SDS011;10246;50.620;7.232;2023-02-15T10:14:19;20.63;;;11.87;;
20173;SDS011;10246;50.620;7.232;2023-02-15T10:17:04;20.23;;;11.27;;
20173;SDS011;10246;50.620;7.232;2023-02-15T10:19:41;18.17;;;11.63;;
20173;SDS011;10246;50.620;7.232;2023-02-15T10:22:20;22.07;;;12.17;;
20173;SDS011;10246;50.620;7.232;2023-02-15T10:25:07;21.07;;;11.40;;
20173;SDS011;10246;50.620;7.232;2023-02-15T10:27:46;25.50;;;11.83;;
20173;SDS011;10246;50.620;7.232;2023-02-15T10:30:14;20.93;;;12.17;;
20173;SDS011;10246;50.620;7.232;2023-02-15T10:32:44;20.10;;;11.70;;
20173;SDS011;10246;50.620;7.232;2023-02-15T10:35:22;20.27;;;12.03;;
20173;SDS011;10246;50.620;7.232;2023-02-15T10:40:53;21.33;;;12.40;;
20173;SDS011;10246;50.620;7.232;2023-02-15T10:46:31;20.40;;;11.93;;
20173;SDS011;10246;50.620;7.232;2023-02-15T10:49:21;18.80;;;11.03;;
20173;SDS011;10246;50.620;7.232;2023-02-15T10:52:02;19.60;;;12.30;;
20173;SDS011;10246;50.620;7.232;2023-02-15T10:54:43;19.90;;;12.13;;
20173;SDS011;10246;50.620;7.232;2023-02-15T10:57:16;19.93;;;12.20;;
20173;SDS011;10246;50.620;7.232;2023-02-15T10:59:52;20.47;;;12.00;;
20173;SDS011;10246;50.620;7.232;2023-02-15T11:02:32;21.13;;;12.53;;
20173;SDS011;10246;50.620;7.232;2023-02-15T11:05:24;19.53;;;11.90;;
20173;SDS011;10246;50.620;7.232;2023-02-15T11:07:57;17.73;;;11.33;;
20173;SDS011;10246;50.620;7.232;2023-02-15T11:10:29;18.27;;;11.67;;
20173;SDS011;10246;50.620;7.232;2023-02-15T11:13:01;19.90;;;11.43;;
20173;SDS011;10246;50.620;7.232;2023-02-15T11:15:32;18.63;;;11.67;;
20173;SDS011;10246;50.620;7.232;2023-02-15T11:18:04;18.63;;;11.50;;
20173;SDS011;10246;50.620;7.232;2023-02-15T11:20:35;18.53;;;10.80;;
20173;SDS011;10246;50.620;7.232;2023-02-15T11:23:09;16.87;;;11.37;;
20173;SDS011;10246;50.620;7.232;2023-02-15T11:25:46;18.67;;;10.97;;
20173;SDS011;10246;50.620;7.232;2023-02-15T11:28:29;19.13;;;11.73;;
20173;SDS011;10246;50.620;7.232;2023-02-15T11:31:00;19.23;;;11.57;;
20173;SDS011;10246;50.620;7.232;2023-02-15T11:33:37;17.50;;;11.03;;
20173;SDS011;10246;50.620;7.232;2023-02-15T11:36:10;17.43;;;10.83;;
20173;SDS011;10246;50.620;7.232;2023-02-15T11:38:42;16.23;;;11.10;;
20173;SDS011;10246;50.620;7.232;2023-02-15T11:41:11;17.27;;;10.93;;
20173;SDS011;10246;50.620;7.232;2023-02-15T11:43:43;20.73;;;11.70;;
20173;SDS011;10246;50.620;7.232;2023-02-15T11:46:13;19.67;;;11.17;;
20173;SDS011;10246;50.620;7.232;2023-02-15T11:48:40;18.90;;;11.13;;
20173;SDS011;10246;50.620;7.232;2023-02-15T11:51:08;16.77;;;10.60;;
20173;SDS011;10246;50.620;7.232;2023-02-15T11:53:41;18.73;;;11.03;;
20173;SDS011;10246;50.620;7.232;2023-02-15T11:56:13;16.27;;;10.40;;
20173;SDS011;10246;50.620;7.232;2023-02-15T11:58:41;15.00;;;9.53;;
20173;SDS011;10246;50.620;7.232;2023-02-15T12:01:13;14.77;;;10.20;;
20173;SDS011;10246;50.620;7.232;2023-02-15T12:03:44;17.37;;;10.50;;
20173;SDS011;10246;50.620;7.232;2023-02-15T12:06:16;18.27;;;11.93;;
20173;SDS011;10246;50.620;7.232;2023-02-15T12:08:51;16.90;;;10.07;;
20173;SDS011;10246;50.620;7.232;2023-02-15T12:11:25;16.27;;;10.57;;
20173;SDS011;10246;50.620;7.232;2023-02-15T12:13:58;16.63;;;10.27;;
20173;SDS011;10246;50.620;7.232;2023-02-15T12:16:26;17.73;;;11.27;;
20173;SDS011;10246;50.620;7.232;2023-02-15T12:18:56;15.13;;;10.33;;
20173;SDS011;10246;50.620;7.232;2023-02-15T12:21:26;15.33;;;9.83;;
20173;SDS011;10246;50.620;7.232;2023-02-15T12:23:56;17.83;;;10.47;;
20173;SDS011;10246;50.620;7.232;2023-02-15T12:26:28;20.10;;;10.53;;
20173;SDS011;10246;50.620;7.232;2023-02-15T12:28:57;16.03;;;10.37;;
20173;SDS011;10246;50.620;7.232;2023-02-15T12:31:28;16.87;;;10.83;;
20173;SDS011;10246;50.620;7.232;2023-02-15T12:33:59;17.23;;;9.73;;
20173;SDS011;10246;50.620;7.232;2023-02-15T12:36:29;18.13;;;10.57;;
20173;SDS011;10246;50.620;7.232;2023-02-15T12:39:02;13.93;;;9.23;;
20173;SDS011;10246;50.620;7.232;2023-02-15T12:41:31;17.13;;;9.87;;
20173;SDS011;10246;50.620;7.232;2023-02-15T12:44:05;15.53;;;9.83;;
20173;SDS011;10246;50.620;7.232;2023-02-15T12:46:43;14.77;;;9.90;;
20173;SDS011;10246;50.620;7.232;2023-02-15T12:49:23;14.67;;;10.07;;
20173;SDS011;10246;50.620;7.232;2023-02-15T12:51:52;16.37;;;10.47;;
20173;SDS011;10246;50.620;7.232;2023-02-15T12:54:30;16.93;;;10.10;;
20173;SDS011;10246;50.620;7.232;2023-02-15T12:57:12;18.70;;;11.00;;
20173;SDS011;10246;50.620;7.232;2023-02-15T12:59:47;16.40;;;10.50;;
20173;SDS011;10246;50.620;7.232;2023-02-15T13:02:17;16.20;;;9.80;;
20173;SDS011;10246;50.620;7.232;2023-02-15T13:04:49;13.90;;;9.60;;
20173;SDS011;10246;50.620;7.232;2023-02-15T13:07:17;15.63;;;10.23;;
20173;SDS011;10246;50.620;7.232;2023-02-15T13:09:45;16.93;;;10.37;;
20173;SDS011;10246;50.620;7.232;2023-02-15T13:12:18;15.93;;;10.23;;
20173;SDS011;10246;50.620;7.232;2023-02-15T13:14:48;15.70;;;10.10;;
20173;SDS011;10246;50.620;7.232;2023-02-15T13:17:17;15.97;;;10.13;;
20173;SDS011;10246;50.620;7.232;2023-02-15T13:19:49;17.47;;;9.80;;
20173;SDS011;10246;50.620;7.232;2023-02-15T13:22:20;15.80;;;9.80;;
20173;SDS011;10246;50.620;7.232;2023-02-15T13:24:51;14.70;;;9.37;;
20173;SDS011;10246;50.620;7.232;2023-02-15T13:27:23;14.10;;;9.40;;
20173;SDS011;10246;50.620;7.232;2023-02-15T13:29:55;16.37;;;9.97;;
20173;SDS011;10246;50.620;7.232;2023-02-15T13:32:26;14.63;;;9.73;;
20173;SDS011;10246;50.620;7.232;2023-02-15T13:34:56;13.80;;;9.73;;
20173;SDS011;10246;50.620;7.232;2023-02-15T13:37:33;16.20;;;10.00;;
20173;SDS011;10246;50.620;7.232;2023-02-15T13:40:24;16.33;;;10.40;;
20173;SDS011;10246;50.620;7.232;2023-02-15T13:42:59;14.80;;;9.47;;
20173;SDS011;10246;50.620;7.232;2023-02-15T13:45:33;13.53;;;9.67;;
20173;SDS011;10246;50.620;7.232;2023-02-15T13:48:09;14.63;;;9.70;;
20173;SDS011;10246;50.620;7.232;2023-02-15T13:50:53;14.03;;;9.87;;
20173;SDS011;10246;50.620;7.232;2023-02-15T13:53:33;15.77;;;9.23;;
20173;SDS011;10246;50.620;7.232;2023-02-15T13:56:12;15.13;;;9.70;;
20173;SDS011;10246;50.620;7.232;2023-02-15T13:58:51;17.73;;;10.07;;
20173;SDS011;10246;50.620;7.232;2023-02-15T14:01:31;14.63;;;10.10;;
20173;SDS011;10246;50.620;7.232;2023-02-15T14:04:18;16.60;;;9.77;;
20173;SDS011;10246;50.620;7.232;2023-02-15T14:07:09;15.47;;;9.73;;
20173;SDS011;10246;50.620;7.232;2023-02-15T14:09:48;15.10;;;10.90;;
20173;SDS011;10246;50.620;7.232;2023-02-15T14:12:29;17.20;;;10.37;;
20173;SDS011;10246;50.620;7.232;2023-02-15T14:15:08;16.10;;;9.93;;
20173;SDS011;10246;50.620;7.232;2023-02-15T14:17:54;16.30;;;10.57;;
20173;SDS011;10246;50.620;7.232;2023-02-15T14:20:30;15.10;;;10.00;;
20173;SDS011;10246;50.620;7.232;2023-02-15T14:23:10;16.03;;;10.30;;
20173;SDS011;10246;50.620;7.232;2023-02-15T14:25:53;15.57;;;10.10;;
20173;SDS011;10246;50.620;7.232;2023-02-15T14:28:27;17.80;;;11.17;;
20173;SDS011;10246;50.620;7.232;2023-02-15T14:31:00;16.67;;;10.47;;
20173;SDS011;10246;50.620;7.232;2023-02-15T14:33:31;14.67;;;9.23;;
20173;SDS011;10246;50.620;7.232;2023-02-15T14:36:03;13.20;;;8.67;;
20173;SDS011;10246;50.620;7.232;2023-02-15T14:38:38;17.60;;;10.53;;
20173;SDS011;10246;50.620;7.232;2023-02-15T14:41:17;12.23;;;8.57;;
20173;SDS011;10246;50.620;7.232;2023-02-15T14:43:47;17.20;;;10.00;;
20173;SDS011;10246;50.620;7.232;2023-02-15T14:46:26;17.17;;;9.70;;
20173;SDS011;10246;50.620;7.232;2023-02-15T14:49:03;16.10;;;10.50;;
20173;SDS011;10246;50.620;7.232;2023-02-15T14:57:23;13.93;;;9.50;;
20173;SDS011;10246;50.620;7.232;2023-02-15T14:59:53;13.80;;;8.90;;
20173;SDS011;10246;50.620;7.232;2023-02-15T15:02:24;17.43;;;10.10;;
20173;SDS011;10246;50.620;7.232;2023-02-15T15:04:57;13.93;;;9.13;;
20173;SDS011;10246;50.620;7.232;2023-02-15T15:07:28;17.00;;;8.60;;
20173;SDS011;10246;50.620;7.232;2023-02-15T15:10:04;16.20;;;9.10;;
20173;SDS011;10246;50.620;7.232;2023-02-15T15:12:41;14.50;;;9.40;;
20173;SDS011;10246;50.620;7.232;2023-02-15T15:15:11;18.90;;;10.37;;
20173;SDS011;10246;50.620;7.232;2023-02-15T15:17:57;20.57;;;10.47;;
20173;SDS011;10246;50.620;7.232;2023-02-15T15:20:41;16.57;;;10.00;;